Time;durP1;ratioP1;P1;durP2;ratioP2;P2;SDS_P1;SDS_P2;PMS_P1;PMS_P2;Temp;Humidity;BMP_temperature;BMP_pressure;BME280_temperature;BME280_humidity;BME280_pressure;Samples;Min_cycle;Max_cycle;Signal;HPM_P1;HPM_P2
2024/03/06 00:04:34;;;;;;;77.80;47.70;;;;;;;-0.11;88.64;100173.24;217102;1263;141379;-69
2024/03/06 00:09:38;;;;;;;75.60;48.30;;;;;;;-0.04;88.78;100169.98;217169;1264;140763;-70
2024/03/06 00:14:44;;;;;;;63.90;38.00;;;;;;;0.05;89.14;100176.92;217062;1260;140115;-70
2024/03/06 00:19:48;;;;;;;56.80;36.50;;;;;;;0.12;89.33;100178.08;217091;1261;140691;-70
2024/03/06 00:24:52;;;;;;;74.30;42.00;;;;;;;0.18;89.53;100179.27;217045;1259;141181;-71
2024/03/06 00:29:57;;;;;;;69.00;37.60;;;;;;;0.28;89.72;100179.11;218058;1259;140487;-70
2024/03/06 00:35:02;;;;;;;48.80;29.60;;;;;;;0.37;90.13;100178.34;217039;1259;140013;-70
2024/03/06 00:40:07;;;;;;;60.20;33.70;;;;;;;0.43;90.41;100182.30;217125;1260;140301;-72
2024/03/06 00:45:11;;;;;;;181.10;91.20;;;;;;;0.50;90.41;100189.25;217312;1262;141774;-71
2024/03/06 00:50:16;;;;;;;124.20;69.00;;;;;;;0.54;90.02;100191.14;217904;1262;139937;-71
2024/03/06 00:55:21;;;;;;;74.90;42.70;;;;;;;0.58;90.54;100200.45;217157;1263;140081;-71
2024/03/06 01:00:26;;;;;;;90.10;57.80;;;;;;;0.64;90.31;100197.48;217059;1261;139479;-74
2024/03/06 01:05:30;;;;;;;119.40;67.00;;;;;;;0.67;90.63;100197.00;217111;1259;142274;-74
2024/03/06 01:10:35;;;;;;;118.70;62.30;;;;;;;0.74;90.80;100194.23;217019;1261;141064;-72
2024/03/06 01:15:41;;;;;;;111.40;64.90;;;;;;;0.79;90.91;100197.34;218210;1259;139786;-72
2024/03/06 01:20:46;;;;;;;90.60;52.80;;;;;;;0.86;91.17;100194.05;217071;1260;139676;-72
2024/03/06 01:25:51;;;;;;;92.60;52.40;;;;;;;0.91;91.17;100194.67;217360;1259;139714;-75
2024/03/06 01:30:58;;;;;;;91.50;48.70;;;;;;;0.98;91.58;100191.98;217017;1261;140119;-72
2024/03/06 01:36:04;;;;;;;70.00;37.90;;;;;;;1.05;91.70;100191.97;217955;1263;139786;-75
2024/03/06 01:41:09;;;;;;;72.20;41.00;;;;;;;1.10;91.31;100189.25;217114;1263;140951;-73
2024/03/06 01:46:14;;;;;;;66.20;41.40;;;;;;;1.13;91.63;100194.08;217443;1259;140218;-71
2024/03/06 01:51:18;;;;;;;59.50;32.50;;;;;;;1.17;91.62;100197.24;217740;1260;141452;-75
2024/03/06 01:56:24;;;;;;;50.20;31.50;;;;;;;1.22;91.66;100194.75;217067;1263;140875;-72
2024/03/06 02:01:31;;;;;;;60.50;34.30;;;;;;;1.20;91.44;100204.02;217197;1261;140114;-70
2024/03/06 02:06:36;;;;;;;59.30;31.30;;;;;;;1.23;92.03;100208.98;217050;1259;140350;-71
2024/03/06 02:11:41;;;;;;;63.20;34.80;;;;;;;1.26;91.89;100212.17;217149;1260;139962;-76
2024/03/06 02:16:45;;;;;;;55.80;34.50;;;;;;;1.31;92.03;100212.31;216821;1263;140856;-71
2024/03/06 02:21:49;;;;;;;56.30;31.50;;;;;;;1.38;92.21;100215.08;216998;1260;139868;-72
2024/03/06 02:26:53;;;;;;;53.60;32.00;;;;;;;1.44;92.53;100214.10;216662;1262;140882;-73
2024/03/06 02:31:57;;;;;;;60.90;33.50;;;;;;;1.46;92.58;100209.84;217386;1260;140153;-72
2024/03/06 02:37:03;;;;;;;60.10;33.80;;;;;;;1.48;92.21;100212.59;216822;1259;140488;-72
2024/03/06 02:42:10;;;;;;;51.60;30.30;;;;;;;1.51;92.23;100211.41;216863;1260;140057;-72
2024/03/06 02:47:14;;;;;;;56.40;29.30;;;;;;;1.55;92.66;100212.47;216869;1259;140979;-73
2024/03/06 02:52:19;;;;;;;55.90;31.80;;;;;;;1.57;92.62;100211.25;216683;1262;139960;-73
2024/03/06 02:57:30;;;;;;;51.70;28.20;;;;;;;1.62;93.15;100209.84;217348;1259;140233;-72
2024/03/06 03:02:34;;;;;;;52.70;33.30;;;;;;;1.67;92.99;100208.44;216747;1259;139824;-73
2024/03/06 03:07:39;;;;;;;46.60;33.10;;;;;;;1.73;93.13;100204.69;216903;1260;139767;-73
2024/03/06 03:12:44;;;;;;;48.80;27.80;;;;;;;1.80;93.46;100197.95;216792;1263;140278;-73
2024/03/06 03:17:49;;;;;;;61.80;41.10;;;;;;;1.83;93.18;100197.58;216879;1260;140023;-73
2024/03/06 03:22:53;;;;;;;48.60;29.60;;;;;;;1.85;93.22;100198.45;216740;1259;139457;-74
2024/03/06 03:27:57;;;;;;;45.80;26.80;;;;;;;1.87;93.25;100202.71;216982;1263;139693;-74
2024/03/06 03:33:02;;;;;;;48.90;28.70;;;;;;;1.89;93.54;100210.89;217282;1260;139755;-72
2024/03/06 03:38:07;;;;;;;56.80;31.40;;;;;;;1.92;93.41;100213.02;216995;1260;141690;-74
2024/03/06 03:43:13;;;;;;;58.40;31.60;;;;;;;1.98;93.91;100209.92;217130;1263;140730;-73
2024/03/06 03:48:18;;;;;;;50.80;29.80;;;;;;;2.04;93.74;100209.14;216936;1259;140637;-73
2024/03/06 03:53:22;;;;;;;54.70;33.20;;;;;;;2.08;93.60;100207.85;217008;1259;140072;-73
2024/03/06 03:58:26;;;;;;;53.30;30.30;;;;;;;2.12;94.01;100214.23;217781;1259;140409;-73
2024/03/06 04:03:33;;;;;;;44.40;29.40;;;;;;;2.17;94.09;100219.93;216955;1259;141583;-72
2024/03/06 04:08:37;;;;;;;46.80;29.40;;;;;;;2.22;94.08;100221.80;217014;1259;141402;-74
2024/03/06 04:13:43;;;;;;;53.00;29.60;;;;;;;2.26;94.08;100222.09;216908;1259;139501;-72
2024/03/06 04:18:47;;;;;;;46.30;27.70;;;;;;;2.29;94.09;100221.36;216855;1263;140956;-75
2024/03/06 04:23:51;;;;;;;50.80;29.00;;;;;;;2.31;94.16;100220.77;217020;1259;140098;-73
2024/03/06 04:28:55;;;;;;;45.20;26.70;;;;;;;2.33;94.14;100218.78;217549;1261;140018;-74
2024/03/06 04:34:00;;;;;;;53.80;32.00;;;;;;;2.38;94.11;100226.63;217002;1262;141105;-72
2024/03/06 04:39:07;;;;;;;51.10;29.30;;;;;;;2.40;94.11;100232.52;217050;1263;140843;-71
2024/03/06 04:44:11;;;;;;;;;;;;;;;2.42;94.31;100236.29;216784;1259;139844;-72
2024/03/06 04:49:15;;;;;;;51.10;28.50;;;;;;;2.42;94.34;100232.41;220241;1259;126754;-73
2024/03/06 04:54:19;;;;;;;50.20;31.00;;;;;;;2.44;94.16;100232.60;218079;1261;140613;-72
2024/03/06 04:59:23;;;;;;;55.40;35.20;;;;;;;2.48;94.22;100235.13;219849;1259;140019;-72
2024/03/06 05:04:29;;;;;;;49.40;32.00;;;;;;;2.53;94.38;100238.70;219988;1260;140427;-73
2024/03/06 05:09:50;;;;;;;52.90;29.00;;;;;;;2.60;94.46;100239.62;220109;1259;140740;-75
2024/03/06 05:15:12;;;;;;;48.40;28.10;;;;;;;2.68;94.22;100241.32;217656;1259;139980;-75
2024/03/06 05:20:34;;;;;;;45.70;26.50;;;;;;;2.72;94.25;100242.23;217017;1259;141107;-75
2024/03/06 05:25:55;;;;;;;50.20;25.70;;;;;;;2.77;94.30;100242.70;217521;1260;140843;-75
2024/03/06 05:31:22;;;;;;;46.10;29.70;;;;;;;2.79;94.54;100247.52;216761;1260;648846;-74
2024/03/06 05:36:44;;;;;;;50.10;30.10;;;;;;;2.81;94.17;100246.27;217230;1263;141805;-75
2024/03/06 05:42:06;;;;;;;47.50;26.70;;;;;;;2.83;94.53;100240.23;217014;1260;142650;-74
2024/03/06 05:47:27;;;;;;;46.90;29.40;;;;;;;2.85;94.54;100239.15;216924;1259;141706;-75
2024/03/06 05:52:48;;;;;;;45.60;27.90;;;;;;;2.87;94.60;100249.31;216980;1259;139810;-74
2024/03/06 05:58:09;;;;;;;39.00;25.50;;;;;;;2.89;94.52;100251.38;216961;1262;140429;-75
2024/03/06 06:03:18;;;;;;;48.00;29.30;;;;;;;2.90;94.59;100253.38;217139;1260;142174;-74
2024/03/06 06:08:22;;;;;;;47.60;29.50;;;;;;;2.91;94.72;100258.80;217109;1259;140672;-76
2024/03/06 06:13:27;;;;;;;47.80;26.80;;;;;;;2.94;94.82;100261.48;217073;1259;139898;-76
2024/03/06 06:18:31;;;;;;;41.40;28.20;;;;;;;2.98;95.05;100263.84;217088;1259;141049;-76
2024/03/06 06:23:37;;;;;;;42.60;25.90;;;;;;;3.01;94.74;100263.30;216779;1259;141140;-77
2024/03/06 06:28:49;;;;;;;43.60;25.30;;;;;;;3.02;94.74;100263.60;217025;1259;140140;-77
2024/03/06 06:33:53;;;;;;;55.30;29.90;;;;;;;3.04;94.84;100264.94;216948;1259;140895;-76
2024/03/06 06:38:59;;;;;;;44.60;27.60;;;;;;;3.07;94.94;100262.78;216784;1261;142024;-78
2024/03/06 06:44:08;;;;;;;46.80;29.00;;;;;;;3.11;95.10;100265.61;216898;1261;140912;-77
2024/03/06 06:49:13;;;;;;;53.10;32.20;;;;;;;3.13;94.90;100267.92;216860;1263;139942;-75
2024/03/06 06:54:17;;;;;;;47.70;29.30;;;;;;;3.17;95.08;100274.23;218881;1261;141601;-75
2024/03/06 06:59:22;;;;;;;45.10;28.70;;;;;;;3.22;95.16;100271.67;216892;1259;140373;-72
2024/03/06 07:04:28;;;;;;;;;;;;;;;3.26;95.17;100275.93;217377;1259;139800;-73
2024/03/06 07:09:32;;;;;;;43.70;25.90;;;;;;;3.28;95.29;100278.06;217354;1259;126388;-72
2024/03/06 07:14:36;;;;;;;48.50;27.00;;;;;;;3.31;95.55;100275.58;218370;1259;141635;-73
2024/03/06 07:19:40;;;;;;;49.00;26.40;;;;;;;3.33;95.54;100274.74;216938;1259;139850;-73
2024/03/06 07:24:46;;;;;;;49.40;28.10;;;;;;;3.37;95.59;100276.05;216768;1263;140864;-73
2024/03/06 07:29:50;;;;;;;46.80;27.80;;;;;;;3.40;95.62;100279.77;217022;1263;140820;-74
2024/03/06 07:34:55;;;;;;;55.60;25.00;;;;;;;3.41;95.68;100284.91;217007;1263;140946;-72
2024/03/06 07:40:01;;;;;;;49.20;27.10;;;;;;;3.45;95.72;100284.16;217029;1260;140928;-72
2024/03/06 07:45:09;;;;;;;50.70;28.10;;;;;;;3.48;95.93;100288.59;217044;1259;141129;-72
2024/03/06 07:50:18;;;;;;;;;;;;;;;3.51;95.96;100294.83;216903;1259;152733;-73
2024/03/06 07:55:23;;;;;;;49.10;25.90;;;;;;;3.52;96.07;100297.38;217574;1263;125730;-75
2024/03/06 08:00:27;;;;;;;44.70;25.00;;;;;;;3.54;96.16;100302.63;216717;1260;139878;-75
2024/03/06 08:05:30;;;;;;;41.80;26.70;;;;;;;3.58;96.11;100306.02;216822;1263;152299;-74
2024/03/06 10:10:32;;;;;;;36.40;23.20;;;;;;;5.00;98.08;100340.38;217040;1261;142145;-74
2024/03/06 12:15:44;;;;;;;53.10;29.20;;;;;;;5.34;97.54;100393.83;217328;1262;140598;-75
2024/03/06 12:20:50;;;;;;;42.70;26.80;;;;;;;5.33;97.32;100392.64;217269;1265;139784;-75
2024/03/06 12:26:04;;;;;;;42.40;26.30;;;;;;;5.34;97.45;100394.27;217128;1265;141179;-75
2024/03/06 12:31:09;;;;;;;41.90;26.80;;;;;;;5.27;96.72;100394.63;217722;1263;141670;-74
2024/03/06 12:36:13;;;;;;;37.30;24.40;;;;;;;5.21;96.95;100395.04;217311;1265;140649;-74
2024/03/06 12:41:16;;;;;;;44.30;26.70;;;;;;;5.18;96.79;100395.83;219768;1260;141211;-75
2024/03/06 12:46:20;;;;;;;37.50;25.90;;;;;;;5.12;96.70;100398.42;218949;1264;140829;-74
2024/03/06 12:51:24;;;;;;;44.50;26.30;;;;;;;5.13;96.61;100399.54;219896;1264;140166;-75
2024/03/06 12:56:28;;;;;;;37.90;24.00;;;;;;;5.15;96.42;100399.65;217867;1260;140127;-74
2024/03/06 13:01:31;;;;;;;36.10;22.20;;;;;;;5.16;96.30;100399.41;216842;1265;141255;-74
2024/03/06 13:06:35;;;;;;;43.90;26.40;;;;;;;5.12;95.97;100404.40;216942;1260;140920;-74
2024/03/06 13:11:40;;;;;;;51.60;30.00;;;;;;;5.12;95.97;100406.52;216725;1260;140517;-74
2024/03/06 13:16:45;;;;;;;44.40;24.30;;;;;;;5.13;95.93;100405.59;216905;1263;141207;-73
2024/03/06 13:21:50;;;;;;;36.20;21.90;;;;;;;5.08;95.87;100408.02;217206;1264;140706;-74
2024/03/06 13:26:53;;;;;;;44.00;25.30;;;;;;;5.02;95.55;100414.75;217798;1262;140675;-75
2024/03/06 13:31:56;;;;;;;31.70;21.00;;;;;;;4.95;95.43;100416.43;216826;1263;141105;-73
2024/03/06 13:36:59;;;;;;;36.70;21.40;;;;;;;4.90;95.43;100420.55;216729;1263;140414;-73
2024/03/06 13:42:03;;;;;;;31.90;21.10;;;;;;;4.91;95.60;100420.51;217314;1265;140550;-74
2024/03/06 13:47:08;;;;;;;32.70;18.70;;;;;;;4.89;95.67;100420.79;216677;1263;140872;-76
2024/03/06 13:52:13;;;;;;;34.80;20.70;;;;;;;4.89;95.68;100419.85;216868;1262;140510;-74
2024/03/06 15:57:18;;;;;;;21.90;12.90;;;;;;;4.45;92.52;100485.17;216724;1263;139935;-74
2024/03/06 16:02:20;;;;;;;28.20;15.10;;;;;;;4.45;92.55;100490.98;219132;1260;163030;-73
2024/03/06 16:07:25;;;;;;;31.80;15.50;;;;;;;4.43;92.29;100493.20;216784;1260;140997;-73
2024/03/06 16:12:27;;;;;;;31.80;16.70;;;;;;;4.40;91.84;100492.42;216836;1261;140895;-73
2024/03/06 16:17:31;;;;;;;35.40;17.00;;;;;;;4.41;92.23;100494.67;216702;1263;141107;-77
2024/03/06 16:22:34;;;;;;;37.90;19.40;;;;;;;4.40;91.89;100496.33;216753;1264;140296;-74
2024/03/06 16:27:38;;;;;;;33.00;17.40;;;;;;;4.40;91.96;100499.48;216750;1261;235625;-74
2024/03/06 16:32:41;;;;;;;29.20;15.70;;;;;;;4.39;91.84;100500.33;217608;1260;140144;-74
2024/03/06 16:37:44;;;;;;;29.20;15.60;;;;;;;4.37;91.70;100503.90;218333;1260;140303;-74
2024/03/06 16:42:47;;;;;;;28.90;15.70;;;;;;;4.37;91.57;100508.13;216791;1260;141703;-74
2024/03/06 16:47:51;;;;;;;23.20;14.10;;;;;;;4.37;91.93;100513.36;216765;1264;141659;-73
2024/03/06 16:52:56;;;;;;;38.00;16.30;;;;;;;4.35;91.68;100522.42;216752;1264;140252;-73
2024/03/06 16:57:59;;;;;;;25.40;15.30;;;;;;;4.33;91.40;100529.66;216772;1263;140315;-73
2024/03/06 17:03:05;;;;;;;25.80;16.50;;;;;;;4.32;91.61;100531.73;216673;1260;140221;-73
2024/03/06 17:08:10;;;;;;;30.40;16.60;;;;;;;4.30;91.45;100537.43;217102;1263;140978;-73
2024/03/06 17:13:19;;;;;;;27.00;15.70;;;;;;;4.27;91.52;100541.05;216843;1261;140258;-73
2024/03/06 17:18:22;;;;;;;30.50;17.70;;;;;;;4.27;91.28;100546.20;216629;1260;141557;-74
2024/03/06 17:23:26;;;;;;;35.00;20.40;;;;;;;4.25;91.36;100552.06;217945;1261;140269;-73
2024/03/06 17:28:31;;;;;;;31.10;20.30;;;;;;;4.22;91.34;100555.34;216812;1260;140060;-74
2024/03/06 17:33:34;;;;;;;30.40;15.90;;;;;;;4.20;91.27;100557.40;216392;1263;514941;-73
2024/03/06 17:38:41;;;;;;;33.10;16.70;;;;;;;4.17;91.40;100559.13;216928;1260;140667;-73
2024/03/06 17:43:46;;;;;;;25.80;15.20;;;;;;;4.13;91.09;100564.55;217218;1260;140829;-73
2024/03/06 17:48:50;;;;;;;17.70;11.80;;;;;;;4.08;90.79;100568.59;217853;1260;140776;-73
2024/03/06 17:53:56;;;;;;;15.60;10.90;;;;;;;4.03;90.12;100572.14;216775;1260;140961;-74
2024/03/06 17:59:01;;;;;;;13.60;10.10;;;;;;;3.99;89.60;100572.55;217198;1263;140692;-73
2024/03/06 18:04:06;;;;;;;20.20;9.50;;;;;;;3.96;89.07;100581.23;216847;1261;140237;-73
2024/03/06 18:09:15;;;;;;;14.20;10.30;;;;;;;3.92;88.49;100582.20;216778;1260;140216;-73
2024/03/06 18:14:18;;;;;;;19.80;8.70;;;;;;;3.89;88.14;100586.95;219911;1260;140068;-76
2024/03/06 18:19:22;;;;;;;12.70;8.20;;;;;;;3.85;87.80;100594.88;219884;1259;142201;-76
2024/03/06 18:24:28;;;;;;;21.10;9.50;;;;;;;3.82;87.12;100595.64;219858;1260;143535;-76
2024/03/06 18:29:32;;;;;;;14.50;8.10;;;;;;;3.80;86.63;100596.40;218610;1260;140423;-76
2024/03/06 18:34:36;;;;;;;12.90;9.00;;;;;;;3.79;86.43;100599.30;217576;1260;140962;-76
2024/03/06 18:39:41;;;;;;;16.00;8.90;;;;;;;3.77;86.15;100601.16;216926;1259;141265;-75
2024/03/06 18:44:45;;;;;;;18.10;10.00;;;;;;;3.73;86.02;100603.77;216994;1263;140517;-75
2024/03/06 18:49:52;;;;;;;17.40;8.70;;;;;;;3.71;85.76;100601.16;217090;1260;140388;-74
2024/03/06 18:54:59;;;;;;;11.80;7.90;;;;;;;3.68;85.70;100602.27;216737;1260;140153;-75
2024/03/06 19:00:03;;;;;;;18.80;9.80;;;;;;;3.62;85.56;100610.11;217017;1260;141010;-73
2024/03/06 19:05:07;;;;;;;16.70;9.30;;;;;;;3.59;85.58;100615.36;216811;1263;139733;-73
2024/03/06 19:10:11;;;;;;;16.70;10.80;;;;;;;3.55;85.41;100613.73;216914;1260;141423;-73
2024/03/06 19:15:16;;;;;;;17.50;12.40;;;;;;;3.50;85.41;100615.66;217283;1260;140693;-73
2024/03/06 19:20:29;;;;;;;18.70;11.20;;;;;;;3.47;85.31;100621.69;217001;1260;140088;-73
2024/03/06 19:25:33;;;;;;;18.30;10.80;;;;;;;3.39;85.00;100623.86;217646;1260;140609;-73
2024/03/06 19:30:40;;;;;;;19.90;11.10;;;;;;;3.34;85.02;100630.25;217117;1261;140499;-73
2024/03/06 19:35:44;;;;;;;19.70;11.20;;;;;;;3.28;84.56;100634.57;216845;1263;139889;-73
2024/03/06 19:40:47;;;;;;;16.90;9.70;;;;;;;3.24;83.97;100637.01;216936;1261;140336;-73
2024/03/06 19:45:51;;;;;;;18.60;10.10;;;;;;;3.20;83.60;100640.10;216774;1263;140979;-73
2024/03/06 19:50:58;;;;;;;18.10;10.10;;;;;;;3.14;83.19;100641.23;216939;1261;140476;-72
2024/03/06 19:56:02;;;;;;;15.40;8.60;;;;;;;3.10;82.94;100636.23;216901;1260;140629;-72
2024/03/06 20:01:08;;;;;;;19.10;10.10;;;;;;;3.02;82.42;100645.33;216834;1260;139775;-73
2024/03/06 20:06:13;;;;;;;18.20;10.10;;;;;;;2.94;82.01;100648.29;217032;1260;140311;-74
2024/03/06 20:11:16;;;;;;;28.80;13.10;;;;;;;2.85;81.78;100643.79;217927;1260;140966;-73
2024/03/06 20:16:21;;;;;;;31.40;10.70;;;;;;;2.79;81.75;100647.96;216660;1260;140212;-73
2024/03/06 20:21:25;;;;;;;42.10;14.90;;;;;;;2.74;81.69;100650.92;216769;1260;141075;-73
2024/03/06 20:26:30;;;;;;;33.80;13.60;;;;;;;2.73;81.92;100645.77;216870;1260;141205;-74
2024/03/06 20:31:34;;;;;;;65.00;22.90;;;;;;;2.73;81.92;100641.55;218012;1259;140328;-73
2024/03/06 20:36:37;;;;;;;24.50;13.90;;;;;;;2.74;81.79;100639.58;217415;1260;140936;-73
2024/03/06 20:41:43;;;;;;;26.10;14.00;;;;;;;2.76;81.91;100642.48;216718;1263;140570;-73
2024/03/06 20:46:47;;;;;;;30.10;12.40;;;;;;;2.78;81.89;100644.20;216864;1260;140193;-74
2024/03/06 20:51:52;;;;;;;18.50;11.30;;;;;;;2.79;81.84;100650.91;216995;1261;140306;-73
2024/03/06 20:56:58;;;;;;;23.50;11.90;;;;;;;2.80;81.74;100651.18;216625;1260;140426;-72
2024/03/06 21:02:02;;;;;;;25.00;14.80;;;;;;;2.80;81.81;100653.81;216787;1263;141911;-74
2024/03/06 21:07:08;;;;;;;35.70;16.10;;;;;;;2.81;81.75;100654.45;216802;1263;140865;-72
2024/03/06 21:12:14;;;;;;;29.00;14.20;;;;;;;2.81;81.95;100656.81;217421;1261;140673;-73
2024/03/06 21:17:18;;;;;;;31.80;17.50;;;;;;;2.82;82.04;100661.00;217209;1262;140814;-73
2024/03/06 21:22:23;;;;;;;23.00;12.60;;;;;;;2.83;82.03;100661.19;216989;1260;140689;-74
2024/03/06 21:27:27;;;;;;;19.50;12.30;;;;;;;2.84;81.97;100669.85;217209;1261;139814;-71
2024/03/06 21:32:33;;;;;;;21.20;12.60;;;;;;;2.83;81.89;100672.55;217696;1259;140354;-73
2024/03/06 21:37:37;;;;;;;20.40;10.90;;;;;;;2.84;81.90;100675.32;217100;1263;141844;-73
2024/03/06 21:42:42;;;;;;;22.90;11.70;;;;;;;2.84;81.94;100679.34;216992;1260;142217;-75
2024/03/06 21:47:47;;;;;;;28.70;14.70;;;;;;;2.85;81.94;100683.45;217101;1260;139772;-71
2024/03/06 21:52:51;;;;;;;21.90;14.80;;;;;;;2.85;81.82;100684.66;217757;1260;141767;-74
2024/03/06 21:57:59;;;;;;;26.30;12.50;;;;;;;2.83;81.78;100684.17;217953;1260;140333;-73
2024/03/06 22:03:04;;;;;;;25.70;15.10;;;;;;;2.83;81.78;100684.73;217244;1260;140082;-73
2024/03/06 22:08:09;;;;;;;19.40;12.40;;;;;;;2.83;81.88;100690.72;217126;1263;140237;-72
2024/03/06 22:13:14;;;;;;;32.50;13.90;;;;;;;2.82;81.78;100693.45;216948;1263;141398;-73
2024/03/06 22:18:20;;;;;;;23.60;14.20;;;;;;;2.80;81.73;100700.26;216778;1260;141349;-74
2024/03/06 22:23:24;;;;;;;96.20;33.90;;;;;;;2.79;81.63;100706.23;218240;1261;142118;-74
2024/03/06 22:28:27;;;;;;;30.50;15.10;;;;;;;2.78;81.62;100706.14;217323;1262;141285;-73
2024/03/06 22:33:32;;;;;;;36.10;19.10;;;;;;;2.79;81.78;100707.16;216826;1265;141134;-74
2024/03/06 22:38:36;;;;;;;23.80;15.40;;;;;;;2.79;81.65;100712.72;216877;1260;140549;-73
2024/03/06 22:43:39;;;;;;;29.90;16.30;;;;;;;2.78;81.71;100713.35;216926;1265;140393;-73
2024/03/06 22:48:44;;;;;;;24.90;14.90;;;;;;;2.77;81.44;100719.27;216853;1260;141363;-71
2024/03/06 22:53:48;;;;;;;70.80;24.50;;;;;;;2.76;81.72;100721.51;216932;1261;140684;-70
2024/03/06 22:58:51;;;;;;;24.50;16.00;;;;;;;2.74;81.76;100716.27;217115;1260;141348;-70
2024/03/06 23:03:55;;;;;;;32.30;16.00;;;;;;;2.73;81.70;100726.69;216877;1265;141510;-70
2024/03/06 23:09:00;;;;;;;25.20;16.10;;;;;;;2.73;81.64;100729.67;217051;1260;139844;-73
2024/03/06 23:14:06;;;;;;;30.70;17.00;;;;;;;2.71;81.66;100727.48;217240;1261;139980;-71
2024/03/06 23:19:10;;;;;;;23.50;15.40;;;;;;;2.69;81.63;100731.54;217060;1262;140803;-72
2024/03/06 23:24:15;;;;;;;26.90;14.90;;;;;;;2.67;81.74;100726.27;217416;1259;141144;-71
2024/03/06 23:29:19;;;;;;;24.30;13.90;;;;;;;2.67;81.68;100726.13;217138;1261;141218;-74
2024/03/06 23:34:22;;;;;;;22.70;13.50;;;;;;;2.64;81.42;100724.11;216902;1260;139788;-71
2024/03/06 23:39:26;;;;;;;22.60;15.50;;;;;;;2.62;81.36;100724.50;217164;1259;140104;-71
2024/03/06 23:44:31;;;;;;;29.10;15.70;;;;;;;2.62;81.44;100724.69;216973;1259;140949;-73
2024/03/06 23:49:35;;;;;;;23.90;15.50;;;;;;;2.60;81.45;100721.73;217573;1260;140818;-70
2024/03/06 23:54:39;;;;;;;26.60;15.20;;;;;;;2.58;81.33;100727.60;217063;1259;140298;-70
2024/03/06 23:59:44;;;;;;;32.70;16.20;;;;;;;2.56;81.40;100723.77;216823;1259;142534;-71
